Time;durP1;ratioP1;P1;durP2;ratioP2;P2;SDS_P1;SDS_P2;PMS_P1;PMS_P2;Temp;Humidity;BMP_temperature;BMP_pressure;BME280_temperature;BME280_humidity;BME280_pressure;Samples;Min_cycle;Max_cycle;Signal;HPM_P1;HPM_P2
2022/10/17 00:00:32;;;;;;;9.60;5.47;;;;;;;;;;5020598;28;20200;-72
2022/10/17 00:02:58;;;;;;;10.38;5.95;;;;;;;;;;5011260;28;20179;-72
2022/10/17 00:05:23;;;;;;;8.70;6.65;;;;;;;;;;5020586;28;20583;-74
2022/10/17 00:07:49;;;;;;;8.48;6.00;;;;;;;;;;5017828;28;20700;-73
2022/10/17 00:10:14;;;;;;;10.43;5.75;;;;;;;;;;5019433;28;20211;-74
2022/10/17 00:12:39;;;;;;;11.70;6.22;;;;;;;;;;5025835;28;20178;-75
2022/10/17 00:15:05;;;;;;;8.82;6.35;;;;;;;;;;5021912;28;20209;-75
2022/10/17 00:17:31;;;;;;;10.63;7.18;;;;;;;;;;5023144;28;20668;-72
2022/10/17 00:19:57;;;;;;;9.15;6.65;;;;;;;;;;5019324;28;20186;-75
2022/10/17 00:22:23;;;;;;;9.50;7.63;;;;;;;;;;5020850;28;20635;-75
2022/10/17 00:24:48;;;;;;;9.73;7.53;;;;;;;;;;5020970;28;20281;-74
2022/10/17 00:27:13;;;;;;;10.85;7.43;;;;;;;;;;5022787;28;20217;-74
2022/10/17 00:29:38;;;;;;;10.82;7.78;;;;;;;;;;5017919;28;20171;-74
2022/10/17 00:32:03;;;;;;;9.88;7.00;;;;;;;;;;5022127;28;20656;-74
2022/10/17 00:34:29;;;;;;;9.40;7.30;;;;;;;;;;5014366;28;20233;-74
2022/10/17 00:36:55;;;;;;;9.55;7.38;;;;;;;;;;5031096;28;20183;-74
2022/10/17 00:39:20;;;;;;;8.60;7.55;;;;;;;;;;5018229;28;20645;-74
2022/10/17 00:41:45;;;;;;;10.45;7.45;;;;;;;;;;5017443;28;20186;-74
2022/10/17 00:44:28;;;;;;;10.82;8.23;;;;;;;;;;5010608;28;20231;-72
2022/10/17 00:46:54;;;;;;;11.50;8.45;;;;;;;;;;5012331;28;20719;-74
2022/10/17 00:49:21;;;;;;;11.07;8.25;;;;;;;;;;5022178;28;20187;-74
2022/10/17 00:51:51;;;;;;;11.23;8.32;;;;;;;;;;5024093;28;20201;-74
2022/10/17 00:54:18;;;;;;;9.85;8.25;;;;;;;;;;5022061;28;20202;-74
2022/10/17 00:56:44;;;;;;;9.10;8.13;;;;;;;;;;5034289;28;20182;-74
2022/10/17 00:59:11;;;;;;;13.20;8.65;;;;;;;;;;5023240;28;20178;-74
2022/10/17 01:01:36;;;;;;;12.60;8.60;;;;;;;;;;5022560;28;20273;-74
2022/10/17 01:04:02;;;;;;;11.68;8.35;;;;;;;;;;5015154;28;20743;-73
2022/10/17 01:06:27;;;;;;;10.68;7.85;;;;;;;;;;5021575;28;20198;-74
2022/10/17 01:08:52;;;;;;;11.00;8.68;;;;;;;;;;5014158;28;20525;-74
2022/10/17 01:11:23;;;;;;;16.17;9.32;;;;;;;;;;5015735;28;20191;-74
2022/10/17 01:13:51;;;;;;;10.25;8.07;;;;;;;;;;5018405;28;20232;-72
2022/10/17 01:16:19;;;;;;;11.27;8.70;;;;;;;;;;5015729;28;20182;-74
2022/10/17 01:18:54;;;;;;;9.18;7.88;;;;;;;;;;5014929;28;20751;-72
2022/10/17 01:21:28;;;;;;;11.88;9.27;;;;;;;;;;5023331;28;20181;-72
2022/10/17 01:23:53;;;;;;;9.48;8.20;;;;;;;;;;5012096;28;20189;-74
2022/10/17 01:26:36;;;;;;;12.60;8.40;;;;;;;;;;5013755;28;20175;-75
2022/10/17 01:29:14;;;;;;;10.98;8.23;;;;;;;;;;5020772;28;20174;-72
2022/10/17 01:31:39;;;;;;;10.55;7.63;;;;;;;;;;5019883;28;20174;-74
2022/10/17 01:34:13;;;;;;;16.60;10.20;;;;;;;;;;5016228;28;20219;-75
2022/10/17 01:36:41;;;;;;;11.32;8.90;;;;;;;;;;5017631;28;20864;-75
2022/10/17 01:39:09;;;;;;;11.43;9.02;;;;;;;;;;5018639;28;20274;-75
2022/10/17 01:41:40;;;;;;;8.55;7.68;;;;;;;;;;5017670;28;20252;-74
2022/10/17 01:44:08;;;;;;;10.70;9.00;;;;;;;;;;5015493;28;20244;-74
2022/10/17 01:46:37;;;;;;;11.32;8.93;;;;;;;;;;5019761;28;20760;-75
2022/10/17 01:49:04;;;;;;;11.80;9.25;;;;;;;;;;5023993;28;20233;-74
2022/10/17 01:51:36;;;;;;;11.52;8.82;;;;;;;;;;5022651;28;20170;-72
2022/10/17 01:54:05;;;;;;;12.82;8.98;;;;;;;;;;5017746;28;20175;-72
2022/10/17 01:56:31;;;;;;;10.48;8.70;;;;;;;;;;5029628;28;20616;-74
2022/10/17 01:59:00;;;;;;;11.07;9.25;;;;;;;;;;5021742;28;20478;-74
2022/10/17 02:01:27;;;;;;;12.07;8.50;;;;;;;;;;5023752;28;20187;-74
2022/10/17 02:03:53;;;;;;;10.85;8.18;;;;;;;;;;5015053;28;20179;-74
2022/10/17 02:06:18;;;;;;;10.68;8.63;;;;;;;;;;5022233;28;20615;-72
2022/10/17 02:08:45;;;;;;;13.32;9.77;;;;;;;;;;5022083;28;20181;-74
2022/10/17 02:11:30;;;;;;;13.75;9.20;;;;;;;;;;5018612;28;20679;-75
2022/10/17 02:14:14;;;;;;;11.32;8.82;;;;;;;;;;5016916;28;20194;-74
2022/10/17 02:16:42;;;;;;;11.13;9.40;;;;;;;;;;5025595;28;20182;-72
2022/10/17 02:19:27;;;;;;;11.80;9.55;;;;;;;;;;5023915;28;20190;-74
2022/10/17 02:21:59;;;;;;;12.15;9.40;;;;;;;;;;5018919;28;20188;-75
2022/10/17 02:24:43;;;;;;;12.75;9.68;;;;;;;;;;5025377;28;20209;-74
2022/10/17 02:27:11;;;;;;;12.02;9.30;;;;;;;;;;5027893;28;20224;-72
2022/10/17 02:29:47;;;;;;;13.30;9.65;;;;;;;;;;5042847;28;20262;-74
2022/10/17 02:32:20;;;;;;;16.10;10.10;;;;;;;;;;5022835;28;20675;-74
2022/10/17 02:34:47;;;;;;;10.57;9.40;;;;;;;;;;5023669;28;20204;-74
2022/10/17 02:37:13;;;;;;;12.13;9.35;;;;;;;;;;5019108;28;20664;-74
2022/10/17 02:39:39;;;;;;;14.13;10.00;;;;;;;;;;5019696;28;20191;-74
2022/10/17 02:42:06;;;;;;;12.00;9.73;;;;;;;;;;5020967;28;21522;-74
2022/10/17 02:44:31;;;;;;;13.52;10.10;;;;;;;;;;5023031;28;20584;-74
2022/10/17 02:47:08;;;;;;;11.60;10.00;;;;;;;;;;5035127;28;20198;-74
2022/10/17 02:49:37;;;;;;;13.43;9.63;;;;;;;;;;5018902;28;20183;-72
2022/10/17 02:52:17;;;;;;;12.30;10.27;;;;;;;;;;5023322;28;20289;-74
2022/10/17 02:55:01;;;;;;;12.15;10.30;;;;;;;;;;5020445;28;20214;-74
2022/10/17 02:57:32;;;;;;;18.10;10.57;;;;;;;;;;5016666;28;20184;-74
2022/10/17 02:59:58;;;;;;;15.63;10.27;;;;;;;;;;5023436;28;20206;-72
2022/10/17 03:02:24;;;;;;;12.43;10.23;;;;;;;;;;5017259;28;20248;-74
2022/10/17 03:04:49;;;;;;;13.13;10.32;;;;;;;;;;5018942;28;20672;-76
2022/10/17 03:07:14;;;;;;;12.80;10.07;;;;;;;;;;5020189;28;20214;-74
2022/10/17 03:09:39;;;;;;;15.65;10.05;;;;;;;;;;5014437;28;20194;-74
2022/10/17 03:12:05;;;;;;;14.20;11.30;;;;;;;;;;5022224;28;20607;-73
2022/10/17 03:14:30;;;;;;;13.63;10.05;;;;;;;;;;5020555;28;20203;-74
2022/10/17 03:16:55;;;;;;;13.05;10.18;;;;;;;;;;5015297;28;20283;-72
2022/10/17 03:19:20;;;;;;;13.70;11.85;;;;;;;;;;5021643;28;20182;-73
2022/10/17 03:21:45;;;;;;;24.60;11.73;;;;;;;;;;5015834;28;20171;-74
2022/10/17 03:24:11;;;;;;;12.07;10.32;;;;;;;;;;5025318;28;20251;-74
2022/10/17 03:26:36;;;;;;;17.02;11.13;;;;;;;;;;5019434;28;20206;-74
2022/10/17 03:29:01;;;;;;;13.23;10.57;;;;;;;;;;5018056;28;20190;-74
2022/10/17 03:31:27;;;;;;;13.82;11.23;;;;;;;;;;5023677;28;20182;-74
2022/10/17 03:33:52;;;;;;;14.60;10.20;;;;;;;;;;5016729;28;20174;-74
2022/10/17 03:36:18;;;;;;;15.95;10.55;;;;;;;;;;5018528;28;20183;-75
2022/10/17 03:38:43;;;;;;;13.48;9.98;;;;;;;;;;5016334;28;20183;-74
2022/10/17 03:41:09;;;;;;;12.90;10.13;;;;;;;;;;5021154;28;20213;-74
2022/10/17 03:43:34;;;;;;;12.63;10.57;;;;;;;;;;5013954;28;20171;-74
2022/10/17 03:45:59;;;;;;;12.88;10.07;;;;;;;;;;5014724;28;20210;-74
2022/10/17 03:48:25;;;;;;;15.25;10.00;;;;;;;;;;5017139;28;20223;-74
2022/10/17 03:50:50;;;;;;;11.82;10.00;;;;;;;;;;5018938;28;20265;-74
2022/10/17 03:53:15;;;;;;;13.45;9.85;;;;;;;;;;5015401;28;20185;-74
2022/10/17 03:55:41;;;;;;;16.27;10.55;;;;;;;;;;5017069;28;20191;-74
2022/10/17 03:58:06;;;;;;;12.20;10.20;;;;;;;;;;5022116;28;20643;-74
2022/10/17 04:00:31;;;;;;;15.82;12.00;;;;;;;;;;5019339;28;20537;-75
2022/10/17 04:02:57;;;;;;;11.50;9.50;;;;;;;;;;5013034;28;21447;-74
2022/10/17 04:05:22;;;;;;;15.88;11.05;;;;;;;;;;5016215;28;20210;-74
2022/10/17 04:07:47;;;;;;;16.55;10.50;;;;;;;;;;5013979;28;20198;-74
2022/10/17 04:10:13;;;;;;;11.60;9.40;;;;;;;;;;5019011;28;20182;-74
2022/10/17 04:12:38;;;;;;;11.18;9.63;;;;;;;;;;5019531;28;20550;-74
2022/10/17 04:15:03;;;;;;;13.00;10.52;;;;;;;;;;5023045;28;20289;-74
2022/10/17 04:17:29;;;;;;;12.40;9.82;;;;;;;;;;5020253;28;20201;-74
2022/10/17 04:19:54;;;;;;;12.32;9.73;;;;;;;;;;5016974;28;20558;-74
2022/10/17 04:22:19;;;;;;;14.85;11.10;;;;;;;;;;5021266;28;20190;-74
2022/10/17 04:24:44;;;;;;;17.30;11.52;;;;;;;;;;5042361;28;20293;-75
2022/10/17 04:27:09;;;;;;;14.65;10.93;;;;;;;;;;5018776;28;20680;-74
2022/10/17 04:29:35;;;;;;;13.25;10.25;;;;;;;;;;5022572;28;20183;-74
2022/10/17 04:32:00;;;;;;;17.52;11.93;;;;;;;;;;5031194;28;20175;-74
2022/10/17 04:34:25;;;;;;;12.25;9.88;;;;;;;;;;5018468;28;20191;-74
2022/10/17 04:36:50;;;;;;;12.23;9.45;;;;;;;;;;5019527;28;20662;-74
2022/10/17 04:39:16;;;;;;;16.98;10.07;;;;;;;;;;5015518;28;20190;-74
2022/10/17 04:41:41;;;;;;;14.88;10.23;;;;;;;;;;5025173;28;20265;-74
2022/10/17 04:44:06;;;;;;;14.43;10.02;;;;;;;;;;5019000;28;20182;-74
2022/10/17 04:46:32;;;;;;;14.80;9.82;;;;;;;;;;5024681;28;20178;-75
2022/10/17 04:48:57;;;;;;;13.05;9.77;;;;;;;;;;5014431;28;20175;-75
2022/10/17 04:51:22;;;;;;;18.40;9.90;;;;;;;;;;5023559;28;20594;-74
2022/10/17 04:53:48;;;;;;;12.13;10.07;;;;;;;;;;5019259;28;20423;-74
2022/10/17 04:56:18;;;;;;;11.80;9.15;;;;;;;;;;5020132;28;20178;-74
2022/10/17 04:58:43;;;;;;;11.18;8.98;;;;;;;;;;5035864;28;20551;-74
2022/10/17 05:01:13;;;;;;;14.13;9.88;;;;;;;;;;5018207;28;20182;-75
2022/10/17 05:03:39;;;;;;;12.75;8.60;;;;;;;;;;5016579;28;20174;-74
2022/10/17 05:06:05;;;;;;;10.98;9.23;;;;;;;;;;5018344;28;20280;-75
2022/10/17 05:08:30;;;;;;;11.10;8.88;;;;;;;;;;5013366;28;20305;-75
2022/10/17 05:10:55;;;;;;;14.05;9.38;;;;;;;;;;5017565;28;20272;-74
2022/10/17 05:13:21;;;;;;;9.93;8.10;;;;;;;;;;5018013;28;20237;-74
2022/10/17 05:15:46;;;;;;;11.68;7.97;;;;;;;;;;5018960;28;20191;-74
2022/10/17 05:18:11;;;;;;;14.63;9.55;;;;;;;;;;5012892;28;20282;-75
2022/10/17 05:20:37;;;;;;;12.95;8.27;;;;;;;;;;5018544;28;20265;-74
2022/10/17 05:23:02;;;;;;;11.48;8.45;;;;;;;;;;5009543;28;20225;-74
2022/10/17 05:25:27;;;;;;;9.43;8.02;;;;;;;;;;5017793;28;20256;-75
2022/10/17 05:27:52;;;;;;;10.05;8.45;;;;;;;;;;5014608;28;20206;-74
2022/10/17 05:30:18;;;;;;;12.23;8.35;;;;;;;;;;5024303;28;20225;-75
2022/10/17 05:32:43;;;;;;;12.55;8.63;;;;;;;;;;5017525;28;20175;-75
2022/10/17 05:35:08;;;;;;;11.52;9.30;;;;;;;;;;5021953;28;20802;-74
2022/10/17 05:37:33;;;;;;;15.02;9.13;;;;;;;;;;5019042;28;20185;-75
2022/10/17 05:39:59;;;;;;;12.40;8.27;;;;;;;;;;5022348;28;20181;-75
2022/10/17 05:42:24;;;;;;;13.15;9.40;;;;;;;;;;5018791;28;20671;-74
2022/10/17 05:44:49;;;;;;;12.05;9.70;;;;;;;;;;5023049;28;20209;-74
2022/10/17 05:47:14;;;;;;;13.23;10.00;;;;;;;;;;5025456;28;20362;-74
2022/10/17 05:49:40;;;;;;;13.75;9.63;;;;;;;;;;5018029;28;20173;-74
2022/10/17 05:52:05;;;;;;;13.90;9.30;;;;;;;;;;5023791;28;20183;-75
2022/10/17 05:54:30;;;;;;;13.48;10.05;;;;;;;;;;5015979;28;20194;-74
2022/10/17 05:56:55;;;;;;;13.38;9.57;;;;;;;;;;5018109;28;20190;-74
2022/10/17 05:59:21;;;;;;;12.65;9.52;;;;;;;;;;5025170;28;20606;-75
2022/10/17 06:01:46;;;;;;;12.32;9.98;;;;;;;;;;5016725;28;20273;-74
2022/10/17 06:04:11;;;;;;;12.52;9.02;;;;;;;;;;5021331;28;20205;-75
2022/10/17 06:06:37;;;;;;;13.40;9.32;;;;;;;;;;5019627;28;20198;-75
2022/10/17 06:09:02;;;;;;;12.30;9.98;;;;;;;;;;5017567;28;20175;-74
2022/10/17 06:11:27;;;;;;;14.00;9.90;;;;;;;;;;5019388;28;20190;-74
2022/10/17 06:13:52;;;;;;;12.52;9.70;;;;;;;;;;5025199;28;20266;-74
2022/10/17 06:16:18;;;;;;;15.38;10.05;;;;;;;;;;5023122;28;20182;-75
2022/10/17 06:18:43;;;;;;;17.48;10.82;;;;;;;;;;5021743;28;20766;-75
2022/10/17 06:21:10;;;;;;;14.95;9.75;;;;;;;;;;5025681;28;20210;-74
2022/10/17 06:23:35;;;;;;;13.13;9.63;;;;;;;;;;5024825;28;20652;-75
2022/10/17 06:26:01;;;;;;;11.60;9.15;;;;;;;;;;5025930;28;20233;-74
2022/10/17 06:28:26;;;;;;;13.35;10.38;;;;;;;;;;5036561;28;20210;-74
2022/10/17 06:30:51;;;;;;;10.82;8.70;;;;;;;;;;5023975;28;20179;-75
2022/10/17 06:33:16;;;;;;;14.80;10.18;;;;;;;;;;5025822;28;20171;-74
2022/10/17 06:35:42;;;;;;;12.43;9.45;;;;;;;;;;5028752;28;20648;-74
2022/10/17 06:38:07;;;;;;;13.00;8.95;;;;;;;;;;5021065;28;20196;-75
2022/10/17 06:40:32;;;;;;;12.70;9.30;;;;;;;;;;5026140;28;20174;-75
2022/10/17 06:42:57;;;;;;;10.85;8.73;;;;;;;;;;5026536;28;20537;-74
2022/10/17 06:45:23;;;;;;;11.23;8.73;;;;;;;;;;5024563;28;20205;-74
2022/10/17 06:47:48;;;;;;;9.68;7.50;;;;;;;;;;5023781;28;20694;-75
2022/10/17 06:50:13;;;;;;;9.88;7.55;;;;;;;;;;5021988;28;20469;-74
2022/10/17 06:52:39;;;;;;;10.20;7.97;;;;;;;;;;5020180;28;20220;-74
2022/10/17 06:55:04;;;;;;;10.63;7.82;;;;;;;;;;5021007;28;20226;-74
2022/10/17 06:57:29;;;;;;;8.65;7.10;;;;;;;;;;5022010;28;20184;-74
2022/10/17 06:59:56;;;;;;;11.80;7.30;;;;;;;;;;5021826;28;20186;-75
2022/10/17 07:02:22;;;;;;;10.25;7.57;;;;;;;;;;5018309;28;20185;-74
2022/10/17 07:04:48;;;;;;;10.75;7.25;;;;;;;;;;5019024;28;20244;-74
2022/10/17 07:07:13;;;;;;;9.88;7.07;;;;;;;;;;5038273;28;20245;-74
2022/10/17 07:09:38;;;;;;;8.43;6.75;;;;;;;;;;5017458;28;20182;-74
2022/10/17 07:12:06;;;;;;;8.00;6.65;;;;;;;;;;5020934;28;20185;-75
2022/10/17 07:14:32;;;;;;;8.65;6.93;;;;;;;;;;5016567;28;20191;-74
2022/10/17 07:16:58;;;;;;;7.00;6.28;;;;;;;;;;5019780;28;20205;-74
2022/10/17 07:19:23;;;;;;;8.88;7.30;;;;;;;;;;5014860;28;20692;-74
2022/10/17 07:21:48;;;;;;;7.18;6.13;;;;;;;;;;5020519;28;20233;-75
2022/10/17 07:24:13;;;;;;;9.90;6.20;;;;;;;;;;5022079;28;20225;-75
2022/10/17 07:26:39;;;;;;;9.55;6.78;;;;;;;;;;5021770;28;20243;-74
2022/10/17 07:29:05;;;;;;;10.38;6.65;;;;;;;;;;5034145;28;20262;-74
2022/10/17 07:31:30;;;;;;;8.40;6.40;;;;;;;;;;5016737;28;20174;-75
2022/10/17 07:33:55;;;;;;;11.32;6.45;;;;;;;;;;5016423;28;20245;-74
2022/10/17 07:36:20;;;;;;;7.88;6.60;;;;;;;;;;5020656;28;20751;-74
2022/10/17 07:38:45;;;;;;;8.85;5.80;;;;;;;;;;5017614;28;20193;-74
2022/10/17 07:41:12;;;;;;;8.73;6.78;;;;;;;;;;5021115;28;20217;-75
2022/10/17 07:43:37;;;;;;;7.95;5.70;;;;;;;;;;5016708;28;20647;-74
2022/10/17 07:46:04;;;;;;;9.80;7.13;;;;;;;;;;5020397;28;20325;-74
2022/10/17 07:48:29;;;;;;;7.35;6.25;;;;;;;;;;5016102;28;20213;-74
2022/10/17 07:50:54;;;;;;;9.98;6.68;;;;;;;;;;5036628;28;20567;-75
2022/10/17 07:53:19;;;;;;;10.45;6.28;;;;;;;;;;5016141;28;20213;-75
2022/10/17 07:55:46;;;;;;;9.98;6.85;;;;;;;;;;5018306;28;21282;-75
2022/10/17 07:58:12;;;;;;;8.27;6.45;;;;;;;;;;5016823;28;20199;-75
2022/10/17 08:00:37;;;;;;;7.40;6.00;;;;;;;;;;5021205;28;20185;-75
2022/10/17 08:03:03;;;;;;;7.53;6.53;;;;;;;;;;5023455;28;20199;-75
2022/10/17 08:05:28;;;;;;;10.27;7.25;;;;;;;;;;5017538;28;20292;-74
2022/10/17 08:07:53;;;;;;;12.93;7.07;;;;;;;;;;5020675;28;20244;-75
2022/10/17 08:10:18;;;;;;;9.50;7.05;;;;;;;;;;5015255;28;20672;-75
2022/10/17 08:12:44;;;;;;;9.10;7.05;;;;;;;;;;5017921;28;20175;-74
2022/10/17 08:15:09;;;;;;;11.57;7.47;;;;;;;;;;5016269;28;20203;-74
2022/10/17 08:17:35;;;;;;;10.15;7.80;;;;;;;;;;5026383;28;20197;-75
2022/10/17 08:20:01;;;;;;;8.63;6.90;;;;;;;;;;5017567;28;20269;-75
2022/10/17 08:22:26;;;;;;;11.77;7.40;;;;;;;;;;5025724;28;20597;-75
2022/10/17 08:24:51;;;;;;;11.98;6.80;;;;;;;;;;5023808;28;20207;-75
2022/10/17 08:27:22;;;;;;;10.35;6.53;;;;;;;;;;5020205;28;20207;-75
2022/10/17 08:29:51;;;;;;;11.05;7.50;;;;;;;;;;5014861;28;20179;-75
2022/10/17 08:32:16;;;;;;;19.25;8.65;;;;;;;;;;5035309;28;20203;-75
2022/10/17 08:34:42;;;;;;;10.95;7.68;;;;;;;;;;5015768;28;20202;-75
2022/10/17 08:37:07;;;;;;;9.50;6.80;;;;;;;;;;5020478;28;20241;-75
2022/10/17 08:39:32;;;;;;;12.35;8.05;;;;;;;;;;5020130;28;20210;-75
2022/10/17 08:42:05;;;;;;;13.50;7.63;;;;;;;;;;5021908;28;20663;-74
2022/10/17 08:44:42;;;;;;;10.77;7.50;;;;;;;;;;5035452;28;20427;-75
2022/10/17 08:47:18;;;;;;;9.25;7.95;;;;;;;;;;5025066;28;20560;-75
2022/10/17 08:49:45;;;;;;;8.52;6.95;;;;;;;;;;5012969;28;20175;-75
2022/10/17 08:52:17;;;;;;;9.10;7.25;;;;;;;;;;5022480;28;20710;-75
2022/10/17 08:54:47;;;;;;;9.65;7.13;;;;;;;;;;5021178;28;20206;-75
2022/10/17 08:57:14;;;;;;;7.97;7.18;;;;;;;;;;5024013;28;20190;-75
2022/10/17 08:59:39;;;;;;;11.10;7.97;;;;;;;;;;5023151;28;20729;-75
2022/10/17 09:02:21;;;;;;;9.00;7.20;;;;;;;;;;5013759;28;20178;-75
2022/10/17 09:04:46;;;;;;;9.35;7.47;;;;;;;;;;5025031;28;20202;-75
2022/10/17 09:07:11;;;;;;;8.07;7.23;;;;;;;;;;5018127;28;20213;-75
2022/10/17 09:09:40;;;;;;;12.55;7.70;;;;;;;;;;5022950;28;20999;-75
2022/10/17 09:12:30;;;;;;;9.57;7.32;;;;;;;;;;5016760;28;20613;-75
2022/10/17 09:15:14;;;;;;;9.00;6.55;;;;;;;;;;5016442;28;20194;-75
2022/10/17 09:17:48;;;;;;;8.90;7.57;;;;;;;;;;5027725;28;20210;-75
2022/10/17 09:20:18;;;;;;;10.20;6.82;;;;;;;;;;5018651;28;20679;-75
2022/10/17 09:22:48;;;;;;;11.48;7.68;;;;;;;;;;5021828;28;20547;-74
2022/10/17 09:25:15;;;;;;;11.30;7.40;;;;;;;;;;5017519;28;20243;-74
2022/10/17 09:27:46;;;;;;;11.40;7.15;;;;;;;;;;5026593;28;20208;-73
2022/10/17 09:30:20;;;;;;;10.23;7.82;;;;;;;;;;5013148;28;20179;-74
2022/10/17 09:32:46;;;;;;;9.48;6.80;;;;;;;;;;5026105;28;20264;-74
2022/10/17 09:35:14;;;;;;;9.32;6.55;;;;;;;;;;5020567;28;20650;-73
2022/10/17 09:37:40;;;;;;;11.70;7.85;;;;;;;;;;5037495;28;20183;-74
2022/10/17 09:40:06;;;;;;;12.25;7.90;;;;;;;;;;5022042;28;20192;-74
2022/10/17 09:42:34;;;;;;;12.07;7.50;;;;;;;;;;5025711;28;20269;-74
2022/10/17 09:45:18;;;;;;;9.73;7.32;;;;;;;;;;5020314;28;20216;-73
2022/10/17 09:47:48;;;;;;;14.77;7.47;;;;;;;;;;5021447;28;20229;-73
2022/10/17 09:50:20;;;;;;;9.13;7.03;;;;;;;;;;5021112;28;20657;-74
2022/10/17 09:52:48;;;;;;;8.02;7.07;;;;;;;;;;5037149;28;20170;-73
2022/10/17 09:55:19;;;;;;;9.75;6.80;;;;;;;;;;5015187;28;20292;-74
2022/10/17 09:57:57;;;;;;;9.98;7.00;;;;;;;;;;5015666;28;20221;-73
2022/10/17 10:00:27;;;;;;;10.45;7.32;;;;;;;;;;5019450;28;20185;-73
2022/10/17 10:03:11;;;;;;;9.63;7.65;;;;;;;;;;5017895;28;20178;-72
2022/10/17 10:05:36;;;;;;;9.85;7.20;;;;;;;;;;5022527;28;20206;-73
2022/10/17 10:08:15;;;;;;;9.82;7.10;;;;;;;;;;5020278;28;20654;-73
2022/10/17 10:10:42;;;;;;;10.52;7.80;;;;;;;;;;5020200;28;20189;-72
2022/10/17 10:13:13;;;;;;;10.25;7.93;;;;;;;;;;5038131;28;20189;-73
2022/10/17 10:15:42;;;;;;;12.88;7.53;;;;;;;;;;5029264;28;20191;-73
2022/10/17 10:18:23;;;;;;;10.60;7.72;;;;;;;;;;5018919;28;20222;-73
2022/10/17 10:21:01;;;;;;;9.43;8.02;;;;;;;;;;5030606;28;20178;-73
2022/10/17 10:23:26;;;;;;;10.35;7.95;;;;;;;;;;5024662;28;20174;-73
2022/10/17 10:25:56;;;;;;;9.07;7.43;;;;;;;;;;5026126;28;20198;-73
2022/10/17 10:28:23;;;;;;;7.85;6.88;;;;;;;;;;5015610;28;20973;-74
2022/10/17 10:30:49;;;;;;;7.75;6.95;;;;;;;;;;5019876;28;20532;-73
2022/10/17 10:33:15;;;;;;;8.98;7.25;;;;;;;;;;5026211;28;20175;-74
2022/10/17 10:35:40;;;;;;;10.10;7.38;;;;;;;;;;5038461;28;20683;-73
2022/10/17 10:38:16;;;;;;;7.35;6.18;;;;;;;;;;5026659;28;20179;-73
2022/10/17 10:40:46;;;;;;;11.18;6.90;;;;;;;;;;5032787;28;20284;-73
2022/10/17 10:43:30;;;;;;;8.00;6.55;;;;;;;;;;5022603;28;20182;-73
2022/10/17 10:45:55;;;;;;;9.57;6.50;;;;;;;;;;5023976;28;20207;-73
2022/10/17 10:48:30;;;;;;;6.88;6.18;;;;;;;;;;5031277;28;20706;-73
2022/10/17 10:51:01;;;;;;;9.27;6.90;;;;;;;;;;5020457;28;20186;-73
2022/10/17 10:53:38;;;;;;;6.80;6.07;;;;;;;;;;5028845;28;20178;-73
2022/10/17 10:56:13;;;;;;;7.85;7.05;;;;;;;;;;5022366;28;20552;-73
2022/10/17 10:58:44;;;;;;;8.50;7.07;;;;;;;;;;5022857;28;20195;-73
2022/10/17 11:01:20;;;;;;;7.03;6.32;;;;;;;;;;5025573;28;20183;-73
2022/10/17 11:04:14;;;;;;;9.15;7.13;;;;;;;;;;5017978;28;20181;-73
2022/10/17 11:06:41;;;;;;;6.90;6.13;;;;;;;;;;5019800;28;20217;-73
2022/10/17 11:09:22;;;;;;;6.70;6.10;;;;;;;;;;5028773;28;20174;-73
2022/10/17 11:11:51;;;;;;;6.18;5.65;;;;;;;;;;5032668;28;20181;-73
2022/10/17 11:14:18;;;;;;;6.45;5.70;;;;;;;;;;5020211;28;20198;-73
2022/10/17 11:16:56;;;;;;;7.97;5.85;;;;;;;;;;5023010;28;20179;-73
2022/10/17 11:19:35;;;;;;;7.70;6.75;;;;;;;;;;5023202;28;20549;-73
2022/10/17 11:22:07;;;;;;;6.93;6.22;;;;;;;;;;5022608;28;20243;-73
2022/10/17 11:24:36;;;;;;;7.18;6.30;;;;;;;;;;5027859;28;20198;-73
2022/10/17 11:27:05;;;;;;;11.90;7.18;;;;;;;;;;5026947;28;20210;-73
2022/10/17 11:29:31;;;;;;;7.53;6.72;;;;;;;;;;5026747;28;20174;-73
2022/10/17 11:32:00;;;;;;;7.88;7.07;;;;;;;;;;5025466;28;20656;-73
2022/10/17 11:34:27;;;;;;;8.57;7.25;;;;;;;;;;5023652;28;20206;-73
2022/10/17 11:36:58;;;;;;;9.05;8.07;;;;;;;;;;5026659;28;20185;-72
2022/10/17 11:39:28;;;;;;;9.95;7.47;;;;;;;;;;5022582;28;20186;-73
2022/10/17 11:41:56;;;;;;;8.45;7.53;;;;;;;;;;5021819;28;20182;-73
2022/10/17 11:44:41;;;;;;;8.52;7.65;;;;;;;;;;5026344;28;20691;-73
2022/10/17 11:47:24;;;;;;;9.57;8.57;;;;;;;;;;5021350;28;20727;-73
2022/10/17 11:49:52;;;;;;;9.00;8.10;;;;;;;;;;5020021;28;20570;-73
2022/10/17 11:52:23;;;;;;;10.18;8.18;;;;;;;;;;5016557;28;20183;-72
2022/10/17 11:54:50;;;;;;;9.57;8.68;;;;;;;;;;5021266;28;20201;-73
2022/10/17 11:57:15;;;;;;;8.90;7.78;;;;;;;;;;5019780;28;20190;-73
2022/10/17 11:59:47;;;;;;;8.47;7.67;;;;;;;;;;5014733;28;20544;-73
2022/10/17 12:02:30;;;;;;;9.63;7.70;;;;;;;;;;5018278;28;20420;-73
2022/10/17 12:05:04;;;;;;;8.05;7.22;;;;;;;;;;5019502;28;20202;-73
2022/10/17 12:07:29;;;;;;;7.18;5.30;;;;;;;;;;5022698;28;20202;-73
2022/10/17 12:10:06;;;;;;;3.93;3.57;;;;;;;;;;5025049;28;20197;-74
2022/10/17 12:12:33;;;;;;;4.03;3.60;;;;;;;;;;5019288;28;20423;-73
2022/10/17 12:15:10;;;;;;;4.13;3.20;;;;;;;;;;5015699;28;20292;-72
2022/10/17 12:17:39;;;;;;;3.45;2.70;;;;;;;;;;5023913;28;20187;-72
2022/10/17 12:20:20;;;;;;;3.17;2.90;;;;;;;;;;5017448;28;20328;-72
2022/10/17 12:22:50;;;;;;;5.28;3.42;;;;;;;;;;5036204;28;20549;-73
2022/10/17 12:25:20;;;;;;;4.03;3.17;;;;;;;;;;5033405;28;20203;-72
2022/10/17 12:27:46;;;;;;;4.00;3.30;;;;;;;;;;5018774;28;20284;-73
2022/10/17 12:30:12;;;;;;;3.47;3.17;;;;;;;;;;5020779;28;20175;-72
2022/10/17 12:32:51;;;;;;;4.90;4.13;;;;;;;;;;5019245;28;20539;-73
2022/10/17 12:35:19;;;;;;;4.63;3.78;;;;;;;;;;5018244;28;20209;-72
2022/10/17 12:37:44;;;;;;;5.63;5.00;;;;;;;;;;5028079;28;20186;-73
2022/10/17 12:40:28;;;;;;;4.77;4.27;;;;;;;;;;5014988;28;20179;-73
2022/10/17 12:42:53;;;;;;;7.45;5.32;;;;;;;;;;5022320;28;20814;-73
2022/10/17 12:45:37;;;;;;;6.88;6.13;;;;;;;;;;5020961;28;20252;-73
2022/10/17 12:48:02;;;;;;;6.85;6.15;;;;;;;;;;5019317;28;20234;-73
2022/10/17 12:50:50;;;;;;;6.40;5.80;;;;;;;;;;5024506;28;20686;-72
2022/10/17 12:53:18;;;;;;;8.90;7.55;;;;;;;;;;5015876;28;20198;-72
2022/10/17 12:55:43;;;;;;;7.05;6.32;;;;;;;;;;5020404;28;20630;-72
2022/10/17 12:58:13;;;;;;;6.07;5.55;;;;;;;;;;5026778;28;20273;-73
2022/10/17 13:00:47;;;;;;;7.57;6.82;;;;;;;;;;5021531;28;20670;-72
2022/10/17 13:03:31;;;;;;;8.55;7.40;;;;;;;;;;5021563;28;20185;-73
2022/10/17 13:05:58;;;;;;;8.60;7.10;;;;;;;;;;5020243;28;20218;-73
2022/10/17 13:08:28;;;;;;;8.02;7.13;;;;;;;;;;5021691;28;20294;-72
2022/10/17 13:10:54;;;;;;;7.20;6.50;;;;;;;;;;5017687;28;20187;-72
2022/10/17 13:13:25;;;;;;;7.70;6.88;;;;;;;;;;5022995;28;20235;-72
2022/10/17 13:15:51;;;;;;;7.68;6.97;;;;;;;;;;5017527;28;20199;-73
2022/10/17 13:18:19;;;;;;;8.23;6.57;;;;;;;;;;5015911;28;20233;-72
2022/10/17 13:20:53;;;;;;;7.65;6.25;;;;;;;;;;5021393;28;20178;-73
2022/10/17 13:23:25;;;;;;;7.85;7.07;;;;;;;;;;5028261;28;20198;-72
2022/10/17 13:26:08;;;;;;;8.00;7.18;;;;;;;;;;5026746;28;20697;-72
2022/10/17 13:28:34;;;;;;;8.48;7.15;;;;;;;;;;5019092;28;20225;-72
2022/10/17 13:30:59;;;;;;;7.93;6.25;;;;;;;;;;5021538;28;20656;-72
2022/10/17 13:33:30;;;;;;;10.20;6.65;;;;;;;;;;5020120;28;20237;-73
2022/10/17 13:35:55;;;;;;;8.00;5.82;;;;;;;;;;5021969;28;20206;-73
2022/10/17 13:38:23;;;;;;;7.43;6.68;;;;;;;;;;5018619;28;20241;-72
2022/10/17 13:40:48;;;;;;;9.82;6.30;;;;;;;;;;5017325;28;20197;-72
2022/10/17 13:43:18;;;;;;;7.55;6.28;;;;;;;;;;5022580;28;20191;-73
2022/10/17 13:45:51;;;;;;;6.88;6.13;;;;;;;;;;5021922;28;20198;-72
2022/10/17 13:48:18;;;;;;;7.43;6.43;;;;;;;;;;5014106;28;20225;-72
2022/10/17 13:50:46;;;;;;;6.88;6.18;;;;;;;;;;5016053;28;20170;-72
2022/10/17 13:53:23;;;;;;;9.18;6.00;;;;;;;;;;5019382;28;20323;-72
2022/10/17 13:55:49;;;;;;;7.18;6.03;;;;;;;;;;5019094;28;20201;-72
2022/10/17 13:58:15;;;;;;;6.50;5.90;;;;;;;;;;5023219;28;20182;-72
2022/10/17 14:00:41;;;;;;;8.68;6.57;;;;;;;;;;5025353;28;20182;-72
2022/10/17 14:03:06;;;;;;;6.60;5.85;;;;;;;;;;5021253;28;20660;-72
2022/10/17 14:05:31;;;;;;;6.93;6.07;;;;;;;;;;5024765;28;20219;-72
2022/10/17 14:07:58;;;;;;;12.43;8.23;;;;;;;;;;5021247;28;20465;-72
2022/10/17 14:10:35;;;;;;;7.13;6.32;;;;;;;;;;5022144;28;20308;-72
2022/10/17 14:13:03;;;;;;;7.22;6.55;;;;;;;;;;5027111;28;20209;-72
2022/10/17 14:15:28;;;;;;;7.63;6.47;;;;;;;;;;5019470;28;20199;-72
2022/10/17 14:17:56;;;;;;;9.43;6.38;;;;;;;;;;5020578;28;20193;-72
2022/10/17 14:20:22;;;;;;;8.38;5.47;;;;;;;;;;5019387;28;20563;-72
2022/10/17 14:22:47;;;;;;;7.55;6.43;;;;;;;;;;5021548;28;20182;-72
2022/10/17 14:25:26;;;;;;;7.00;6.03;;;;;;;;;;5019650;28;20615;-72
2022/10/17 14:28:01;;;;;;;7.50;6.50;;;;;;;;;;5023439;28;20201;-72
2022/10/17 14:30:26;;;;;;;6.57;5.78;;;;;;;;;;5020176;28;20169;-72
2022/10/17 14:32:54;;;;;;;8.50;6.67;;;;;;;;;;5021147;28;20261;-72
2022/10/17 14:35:19;;;;;;;6.00;5.45;;;;;;;;;;5039609;28;20991;-72
2022/10/17 14:37:46;;;;;;;7.57;6.00;;;;;;;;;;5026760;28;20190;-72
2022/10/17 14:40:16;;;;;;;7.90;6.15;;;;;;;;;;5024529;28;20240;-72